createdAt,value
2023-04-07T00:03:07.486Z,5.57
2023-04-07T00:13:51.660Z,8.80
2023-04-07T00:19:13.753Z,7.03
2023-04-07T00:24:35.923Z,7.95
2023-04-07T00:29:57.978Z,4.95
2023-04-07T00:35:19.935Z,2.95
2023-04-07T00:40:41.766Z,4.18
2023-04-07T00:46:04.039Z,4.45
2023-04-07T00:51:27.379Z,4.97
2023-04-07T00:56:49.275Z,5.85
2023-04-07T01:02:22.511Z,3.28
2023-04-07T01:07:46.995Z,5.72
2023-04-07T01:13:25.725Z,3.33
2023-04-07T01:18:51.733Z,3.30
2023-04-07T01:24:13.603Z,4.88
2023-04-07T01:29:38.143Z,3.75
2023-04-07T01:35:00.635Z,3.88
2023-04-07T01:40:23.278Z,6.40
2023-04-07T01:45:46.474Z,7.25
2023-04-07T01:51:09.162Z,5.07
2023-04-07T01:56:31.221Z,3.25
2023-04-07T02:01:53.233Z,4.00
2023-04-07T02:07:35.534Z,3.25
2023-04-07T02:12:59.328Z,2.58
2023-04-07T02:18:22.450Z,3.70
2023-04-07T02:23:44.572Z,3.10
2023-04-07T02:29:06.698Z,4.45
2023-04-07T02:34:28.520Z,4.03
2023-04-07T02:39:50.542Z,5.45
2023-04-07T02:45:13.074Z,3.20
2023-04-07T02:50:34.944Z,5.68
2023-04-07T02:55:56.850Z,5.80
2023-04-07T03:01:18.828Z,3.80
2023-04-07T03:06:40.678Z,2.45
2023-04-07T03:12:02.717Z,3.35
2023-04-07T03:17:24.661Z,4.43
2023-04-07T03:22:47.762Z,5.82
2023-04-07T03:28:09.615Z,2.55
2023-04-07T03:33:31.443Z,3.03
2023-04-07T03:38:53.214Z,3.65
2023-04-07T03:44:15.120Z,1.95
2023-04-07T03:49:38.641Z,2.80
2023-04-07T03:55:00.763Z,3.47
2023-04-07T04:00:22.798Z,4.00
2023-04-07T04:05:44.587Z,2.05
2023-04-07T04:11:06.395Z,3.53
2023-04-07T04:16:28.480Z,2.88
2023-04-07T04:21:51.325Z,3.47
2023-04-07T04:27:13.198Z,2.15
2023-04-07T04:32:35.224Z,1.88
2023-04-07T04:37:57.158Z,2.13
2023-04-07T04:43:19.083Z,3.35
2023-04-07T04:48:41.265Z,2.05
2023-04-07T04:54:04.324Z,2.83
2023-04-07T04:59:27.372Z,2.22
2023-04-07T05:04:49.329Z,2.03
2023-04-07T05:10:11.873Z,1.92
2023-04-07T05:15:33.753Z,1.52
2023-04-07T05:20:55.809Z,1.88
2023-04-07T05:26:17.935Z,1.98
2023-04-07T05:31:41.637Z,3.05
2023-04-07T05:37:03.531Z,2.88
2023-04-07T05:42:25.511Z,6.65
2023-04-07T05:47:50.330Z,5.05
2023-04-07T05:53:12.565Z,2.57
2023-04-07T05:58:34.364Z,2.65
2023-04-07T06:03:56.590Z,4.30
2023-04-07T06:09:18.642Z,3.55
2023-04-07T06:14:40.733Z,4.18
2023-04-07T06:20:02.739Z,4.53
2023-04-07T06:25:24.591Z,3.83
2023-04-07T06:30:47.084Z,3.22
2023-04-07T06:36:08.955Z,1.80
2023-04-07T06:41:32.044Z,4.10
2023-04-07T06:46:55.716Z,2.03
2023-04-07T06:52:17.559Z,4.25
2023-04-07T06:57:39.413Z,3.03
2023-04-07T07:03:01.476Z,3.58
2023-04-07T07:08:23.940Z,6.57
2023-04-07T07:13:46.416Z,2.97
2023-04-07T07:19:08.651Z,8.43
2023-04-07T07:24:31.400Z,4.47
2023-04-07T07:29:53.381Z,4.93
2023-04-07T07:35:16.325Z,5.80
2023-04-07T07:40:38.226Z,6.32
2023-04-07T07:46:00.138Z,9.30
2023-04-07T07:51:22.279Z,7.63
2023-04-07T07:56:44.208Z,8.80
2023-04-07T08:02:07.188Z,8.73
2023-04-07T08:07:29.320Z,7.90
2023-04-07T08:12:51.489Z,5.70
2023-04-07T08:18:13.499Z,4.75
2023-04-07T08:23:35.683Z,7.18
2023-04-07T08:28:58.769Z,4.28
2023-04-07T08:34:21.547Z,7.78
2023-04-07T08:39:43.451Z,9.02
2023-04-07T08:45:07.357Z,4.20
2023-04-07T08:50:29.622Z,3.58
2023-04-07T08:55:51.667Z,3.40
2023-04-07T09:01:14.671Z,3.13
2023-04-07T09:06:37.295Z,5.07
2023-04-07T09:11:59.224Z,2.97
2023-04-07T09:17:21.913Z,3.33
2023-04-07T09:22:47.825Z,3.35
2023-04-07T09:28:09.709Z,3.90
2023-04-07T09:33:31.629Z,5.10
2023-04-07T09:38:54.001Z,4.28
2023-04-07T09:44:16.455Z,3.85
2023-04-07T09:49:53.942Z,4.40
2023-04-07T09:55:16.664Z,3.45
2023-04-07T10:00:38.555Z,4.93
2023-04-07T10:06:01.531Z,6.85
2023-04-07T10:11:23.589Z,2.78
2023-04-07T10:16:47.613Z,5.72
2023-04-07T10:22:13.629Z,4.25
2023-04-07T10:27:58.806Z,3.75
2023-04-07T10:33:58.444Z,3.17
2023-04-07T10:39:21.349Z,3.55
2023-04-07T10:44:43.254Z,5.53
2023-04-07T10:50:22.505Z,7.35
2023-04-07T10:55:45.878Z,4.47
2023-04-07T11:01:08.001Z,8.32
2023-04-07T11:06:29.912Z,5.30
2023-04-07T11:11:52.487Z,5.28
2023-04-07T11:17:20.445Z,3.92
2023-04-07T11:22:42.283Z,4.32
2023-04-07T11:28:05.046Z,4.20
2023-04-07T11:33:29.162Z,7.57
2023-04-07T11:38:50.992Z,5.10
2023-04-07T11:44:13.409Z,5.72
2023-04-07T11:49:35.266Z,5.45
2023-04-07T11:54:59.652Z,4.68
2023-04-07T12:00:21.750Z,3.58
2023-04-07T12:05:45.052Z,3.58
2023-04-07T12:11:08.280Z,3.17
2023-04-07T12:16:30.160Z,4.40
2023-04-07T12:21:52.520Z,4.25
2023-04-07T12:27:14.351Z,3.45
2023-04-07T12:32:36.342Z,4.30
2023-04-07T12:37:58.341Z,2.45
2023-04-07T12:43:20.180Z,2.63
2023-04-07T12:48:42.114Z,3.47
2023-04-07T12:54:04.641Z,2.47
2023-04-07T12:59:26.618Z,4.13
2023-04-07T13:04:48.358Z,3.47
2023-04-07T13:10:10.692Z,4.40
2023-04-07T13:15:32.558Z,3.67
2023-04-07T13:21:10.717Z,2.78
2023-04-07T13:26:36.454Z,2.22
2023-04-07T13:32:13.338Z,4.47
2023-04-07T13:37:35.179Z,1.88
2023-04-07T13:42:57.846Z,2.95
2023-04-07T13:48:19.747Z,2.15
2023-04-07T13:53:41.822Z,1.83
2023-04-07T13:59:03.887Z,2.60
2023-04-07T14:04:26.118Z,4.40
2023-04-07T14:09:48.693Z,3.70
2023-04-07T14:15:10.690Z,4.55
2023-04-07T14:20:33.695Z,4.57
2023-04-07T14:25:55.991Z,3.42
2023-04-07T14:31:18.061Z,2.17
2023-04-07T14:36:39.951Z,2.22
2023-04-07T14:42:02.010Z,2.53
2023-04-07T14:47:24.036Z,2.40
2023-04-07T14:52:45.993Z,1.75
2023-04-07T14:58:08.584Z,3.22
2023-04-07T15:03:30.839Z,1.67
2023-04-07T15:08:53.062Z,3.00
2023-04-07T15:14:15.044Z,3.15
2023-04-07T15:19:37.077Z,1.45
2023-04-07T15:24:59.946Z,2.53
2023-04-07T15:30:21.981Z,2.85
2023-04-07T15:35:44.449Z,2.20
2023-04-07T15:41:06.796Z,2.28
2023-04-07T15:46:28.896Z,2.95
2023-04-07T15:51:51.538Z,1.30
2023-04-07T15:57:13.550Z,1.42
2023-04-07T16:02:37.414Z,3.13
2023-04-07T16:07:59.331Z,2.47
2023-04-07T16:13:21.338Z,3.17
2023-04-07T16:18:43.285Z,5.15
2023-04-07T16:24:05.738Z,7.15
2023-04-07T16:29:28.192Z,2.03
2023-04-07T16:34:50.057Z,3.25
2023-04-07T16:40:12.197Z,3.90
2023-04-07T16:45:33.965Z,4.75
2023-04-07T16:50:55.823Z,4.10
2023-04-07T16:56:18.157Z,3.13
2023-04-07T17:01:42.178Z,4.10
2023-04-07T17:07:04.478Z,3.17
2023-04-07T17:12:26.678Z,6.38
2023-04-07T17:17:48.839Z,3.17
2023-04-07T17:23:11.141Z,2.15
2023-04-07T17:28:33.105Z,2.10
2023-04-07T17:33:54.937Z,1.15
2023-04-07T17:39:17.627Z,2.50
2023-04-07T17:44:39.545Z,3.30
2023-04-07T17:50:02.241Z,4.18
2023-04-07T17:55:24.383Z,4.63
2023-04-07T18:00:46.404Z,5.13
2023-04-07T18:06:11.012Z,5.00
2023-04-07T18:11:33.097Z,2.88
2023-04-07T18:16:55.847Z,6.25
2023-04-07T18:22:18.255Z,3.80
2023-04-07T18:27:40.073Z,8.10
2023-04-07T18:33:02.028Z,21.63
2023-04-07T18:38:23.930Z,25.60
2023-04-07T18:43:48.973Z,25.30
2023-04-07T18:49:11.037Z,22.35
2023-04-07T18:54:32.926Z,18.48
2023-04-07T18:59:55.308Z,19.67
2023-04-07T19:05:18.530Z,14.18
2023-04-07T19:10:43.988Z,15.57
2023-04-07T19:16:07.831Z,12.05
2023-04-07T19:21:29.696Z,13.25
2023-04-07T19:26:53.022Z,13.95
2023-04-07T19:32:14.948Z,17.15
2023-04-07T19:37:38.240Z,11.77
2023-04-07T19:43:00.798Z,12.93
2023-04-07T19:48:22.852Z,14.50
2023-04-07T19:53:44.662Z,10.57
2023-04-07T19:59:08.474Z,8.18
2023-04-07T20:04:30.631Z,9.10
2023-04-07T20:09:54.246Z,8.00
2023-04-07T20:15:17.139Z,8.63
2023-04-07T20:20:39.000Z,6.10
2023-04-07T20:26:02.207Z,5.68
2023-04-07T20:31:24.258Z,10.70
2023-04-07T20:36:46.812Z,7.32
2023-04-07T20:42:08.762Z,8.68
2023-04-07T20:47:31.579Z,6.53
2023-04-07T20:52:54.108Z,23.10
2023-04-07T20:58:17.897Z,14.27
2023-04-07T21:03:40.009Z,13.45
2023-04-07T21:09:02.799Z,9.00
2023-04-07T21:14:24.645Z,16.35
2023-04-07T21:19:46.682Z,10.35
2023-04-07T21:25:08.981Z,13.57
2023-04-07T21:30:31.591Z,9.18
2023-04-07T21:35:55.315Z,4.68
2023-04-07T21:41:17.519Z,5.88
2023-04-07T21:46:39.462Z,11.27
2023-04-07T21:52:01.387Z,6.50
2023-04-07T21:57:23.690Z,9.82
2023-04-07T22:02:45.888Z,6.82
2023-04-07T22:08:08.009Z,4.35
2023-04-07T22:13:29.858Z,6.07
2023-04-07T22:18:51.892Z,4.80
2023-04-07T22:24:13.727Z,4.47
2023-04-07T22:29:35.616Z,6.28
2023-04-07T22:34:58.196Z,3.55
2023-04-07T22:40:20.031Z,8.68
2023-04-07T22:45:42.049Z,6.90
2023-04-07T22:51:03.981Z,4.03
2023-04-07T22:56:26.738Z,3.03
2023-04-07T23:01:48.766Z,2.33
2023-04-07T23:07:10.754Z,2.45
2023-04-07T23:12:32.580Z,1.48
2023-04-07T23:17:54.968Z,4.07
2023-04-07T23:23:16.933Z,2.17
2023-04-07T23:28:38.784Z,3.08
2023-04-07T23:34:01.565Z,3.47
2023-04-07T23:39:23.427Z,4.35
2023-04-07T23:44:45.331Z,4.88
2023-04-07T23:50:07.978Z,2.95
2023-04-07T23:55:29.812Z,1.52
